Aviation Digital Data Service (ADDS)

Output produced by METARs form (0649 UTC 03 December 2016)
found at http://www.aviationweather.gov/adds/metars/
 
KGED 030554Z AUTO 28009KT 10SM CLR 06/M02 A3008 RMK AO2 SLP185 T00611022 10072 20061 51001